sensor_id;sensor_type;location;lat;lon;timestamp;pressure;altitude;pressure_sealevel;temperature;humidity
59274;BME280;45044;41.572;24.730;2023-04-10T00:00:01;91303.94;;;2.56;100.00
59274;BME280;45044;41.572;24.730;2023-04-10T00:02:27;91298.59;;;2.27;100.00
59274;BME280;45044;41.572;24.730;2023-04-10T00:04:54;91302.53;;;2.12;100.00
59274;BME280;45044;41.572;24.730;2023-04-10T00:07:21;91297.34;;;2.12;100.00
59274;BME280;45044;41.572;24.730;2023-04-10T00:09:48;91282.03;;;2.19;100.00
59274;BME280;45044;41.572;24.730;2023-04-10T00:12:15;91287.13;;;2.28;100.00
59274;BME280;45044;41.572;24.730;2023-04-10T00:14:42;91280.31;;;2.23;100.00
59274;BME280;45044;41.572;24.730;2023-04-10T00:17:09;91290.41;;;2.03;100.00
59274;BME280;45044;41.572;24.730;2023-04-10T00:19:46;91282.28;;;1.93;100.00
59274;BME280;45044;41.572;24.730;2023-04-10T00:22:13;91291.25;;;1.95;100.00
59274;BME280;45044;41.572;24.730;2023-04-10T00:24:40;91283.53;;;1.52;100.00
59274;BME280;45044;41.572;24.730;2023-04-10T00:27:07;91291.72;;;1.76;100.00
59274;BME280;45044;41.572;24.730;2023-04-10T00:29:33;91274.41;;;1.46;100.00
59274;BME280;45044;41.572;24.730;2023-04-10T00:32:01;91273.97;;;1.44;100.00
59274;BME280;45044;41.572;24.730;2023-04-10T00:34:28;91274.34;;;1.12;100.00
59274;BME280;45044;41.572;24.730;2023-04-10T00:36:54;91269.88;;;1.43;100.00
59274;BME280;45044;41.572;24.730;2023-04-10T00:39:21;91279.78;;;1.62;100.00
59274;BME280;45044;41.572;24.730;2023-04-10T00:41:48;91270.41;;;1.70;100.00
59274;BME280;45044;41.572;24.730;2023-04-10T00:44:15;91266.06;;;1.62;100.00
59274;BME280;45044;41.572;24.730;2023-04-10T00:46:42;91254.59;;;1.50;100.00
59274;BME280;45044;41.572;24.730;2023-04-10T00:49:09;91263.03;;;1.60;100.00
59274;BME280;45044;41.572;24.730;2023-04-10T00:51:36;91251.56;;;1.05;100.00
59274;BME280;45044;41.572;24.730;2023-04-10T00:54:03;91263.09;;;1.08;100.00
59274;BME280;45044;41.572;24.730;2023-04-10T00:56:30;91256.53;;;1.11;100.00
59274;BME280;45044;41.572;24.730;2023-04-10T00:58:57;91268.66;;;1.19;100.00
59274;BME280;45044;41.572;24.730;2023-04-10T01:01:25;91252.53;;;0.92;100.00
59274;BME280;45044;41.572;24.730;2023-04-10T01:03:54;91263.41;;;1.06;100.00
59274;BME280;45044;41.572;24.730;2023-04-10T01:15:01;91260.56;;;0.99;100.00
59274;BME280;45044;41.572;24.730;2023-04-10T01:20:21;91261.38;;;0.91;100.00
59274;BME280;45044;41.572;24.730;2023-04-10T01:26:02;91242.94;;;0.62;100.00
59274;BME280;45044;41.572;24.730;2023-04-10T01:28:50;91262.63;;;0.85;100.00
59274;BME280;45044;41.572;24.730;2023-04-10T01:31:36;91265.03;;;0.90;100.00
59274;BME280;45044;41.572;24.730;2023-04-10T01:34:08;91257.44;;;0.85;100.00
59274;BME280;45044;41.572;24.730;2023-04-10T01:36:48;91244.09;;;0.74;100.00
59274;BME280;45044;41.572;24.730;2023-04-10T01:39:20;91260.31;;;0.92;100.00
59274;BME280;45044;41.572;24.730;2023-04-10T01:41:51;91259.47;;;1.00;100.00
59274;BME280;45044;41.572;24.730;2023-04-10T01:44:25;91255.91;;;0.53;100.00
59274;BME280;45044;41.572;24.730;2023-04-10T01:46:54;91256.88;;;0.79;100.00
59274;BME280;45044;41.572;24.730;2023-04-10T01:49:24;91259.22;;;0.63;100.00
59274;BME280;45044;41.572;24.730;2023-04-10T01:51:52;91255.03;;;0.79;100.00
59274;BME280;45044;41.572;24.730;2023-04-10T01:54:26;91255.50;;;0.81;100.00
59274;BME280;45044;41.572;24.730;2023-04-10T01:56:53;91258.00;;;0.69;100.00
59274;BME280;45044;41.572;24.730;2023-04-10T01:59:22;91258.91;;;0.64;100.00
59274;BME280;45044;41.572;24.730;2023-04-10T02:01:55;91207.53;;;0.23;100.00
59274;BME280;45044;41.572;24.730;2023-04-10T02:04:21;91260.00;;;0.63;100.00
59274;BME280;45044;41.572;24.730;2023-04-10T02:06:59;91255.97;;;0.44;100.00
59274;BME280;45044;41.572;24.730;2023-04-10T02:12:15;91247.44;;;0.44;100.00
59274;BME280;45044;41.572;24.730;2023-04-10T02:14:48;91249.09;;;0.49;100.00
59274;BME280;45044;41.572;24.730;2023-04-10T02:17:19;91248.28;;;0.57;100.00
59274;BME280;45044;41.572;24.730;2023-04-10T02:19:50;91240.16;;;0.37;100.00
59274;BME280;45044;41.572;24.730;2023-04-10T02:22:19;91242.53;;;0.51;100.00
59274;BME280;45044;41.572;24.730;2023-04-10T02:24:48;91228.69;;;0.17;100.00
59274;BME280;45044;41.572;24.730;2023-04-10T02:27:15;91240.34;;;0.32;100.00
59274;BME280;45044;41.572;24.730;2023-04-10T02:29:42;91220.41;;;0.32;100.00
59274;BME280;45044;41.572;24.730;2023-04-10T02:32:08;91231.81;;;0.31;100.00
59274;BME280;45044;41.572;24.730;2023-04-10T02:34:36;91223.84;;;0.06;100.00
59274;BME280;45044;41.572;24.730;2023-04-10T02:37:02;91219.94;;;0.00;100.00
59274;BME280;45044;41.572;24.730;2023-04-10T02:39:29;91225.91;;;0.22;100.00
59274;BME280;45044;41.572;24.730;2023-04-10T02:41:56;91221.38;;;0.19;100.00
59274;BME280;45044;41.572;24.730;2023-04-10T02:44:23;91220.59;;;0.18;100.00
59274;BME280;45044;41.572;24.730;2023-04-10T02:46:50;91214.13;;;0.03;100.00
59274;BME280;45044;41.572;24.730;2023-04-10T02:49:16;91211.22;;;0.14;100.00
59274;BME280;45044;41.572;24.730;2023-04-10T02:51:43;91220.84;;;-0.05;100.00
59274;BME280;45044;41.572;24.730;2023-04-10T02:54:10;91219.94;;;0.00;100.00
59274;BME280;45044;41.572;24.730;2023-04-10T02:56:37;91216.72;;;0.03;100.00
59274;BME280;45044;41.572;24.730;2023-04-10T02:59:03;91218.94;;;-0.26;100.00
59274;BME280;45044;41.572;24.730;2023-04-10T03:01:30;91215.91;;;-0.37;100.00
59274;BME280;45044;41.572;24.730;2023-04-10T03:03:57;91227.25;;;-0.20;100.00
59274;BME280;45044;41.572;24.730;2023-04-10T03:06:24;91218.34;;;-0.31;100.00
59274;BME280;45044;41.572;24.730;2023-04-10T03:08:54;91209.97;;;-0.37;100.00
59274;BME280;45044;41.572;24.730;2023-04-10T03:11:21;91207.69;;;-0.30;100.00
59274;BME280;45044;41.572;24.730;2023-04-10T03:13:49;91216.19;;;-0.20;100.00
59274;BME280;45044;41.572;24.730;2023-04-10T03:16:15;91219.50;;;-0.11;100.00
59274;BME280;45044;41.572;24.730;2023-04-10T03:18:45;91213.75;;;-0.26;100.00
59274;BME280;45044;41.572;24.730;2023-04-10T03:21:12;91216.19;;;-0.20;100.00
59274;BME280;45044;41.572;24.730;2023-04-10T03:23:39;91218.56;;;-0.06;100.00
59274;BME280;45044;41.572;24.730;2023-04-10T03:26:06;91214.81;;;-0.27;100.00
59274;BME280;45044;41.572;24.730;2023-04-10T03:28:32;91213.75;;;-0.34;100.00
59274;BME280;45044;41.572;24.730;2023-04-10T03:31:04;91209.97;;;-0.28;100.00
59274;BME280;45044;41.572;24.730;2023-04-10T03:33:31;91213.13;;;-0.22;100.00
59274;BME280;45044;41.572;24.730;2023-04-10T03:35:58;91213.91;;;-0.22;100.00
59274;BME280;45044;41.572;24.730;2023-04-10T03:38:24;91206.31;;;-0.18;100.00
59274;BME280;45044;41.572;24.730;2023-04-10T03:40:51;91192.28;;;-0.08;100.00
59274;BME280;45044;41.572;24.730;2023-04-10T03:43:19;91211.25;;;0.05;100.00
59274;BME280;45044;41.572;24.730;2023-04-10T03:45:46;91209.53;;;0.18;100.00
59274;BME280;45044;41.572;24.730;2023-04-10T03:48:13;91206.00;;;0.22;100.00
59274;BME280;45044;41.572;24.730;2023-04-10T03:50:39;91212.88;;;0.09;100.00
59274;BME280;45044;41.572;24.730;2023-04-10T03:53:06;91203.66;;;-0.01;100.00
59274;BME280;45044;41.572;24.730;2023-04-10T03:55:33;91213.66;;;0.10;100.00
59274;BME280;45044;41.572;24.730;2023-04-10T03:58:00;91211.28;;;-0.13;100.00
59274;BME280;45044;41.572;24.730;2023-04-10T04:00:27;91216.63;;;-0.09;100.00
59274;BME280;45044;41.572;24.730;2023-04-10T04:02:53;91212.03;;;-0.13;100.00
59274;BME280;45044;41.572;24.730;2023-04-10T04:05:21;91219.38;;;-0.32;100.00
59274;BME280;45044;41.572;24.730;2023-04-10T04:07:47;91212.50;;;-0.10;100.00
59274;BME280;45044;41.572;24.730;2023-04-10T04:10:14;91218.41;;;-0.01;100.00
59274;BME280;45044;41.572;24.730;2023-04-10T04:12:41;91206.72;;;-0.07;100.00
59274;BME280;45044;41.572;24.730;2023-04-10T04:15:08;91201.19;;;0.12;100.00
59274;BME280;45044;41.572;24.730;2023-04-10T04:17:35;91219.13;;;0.08;100.00
59274;BME280;45044;41.572;24.730;2023-04-10T04:20:02;91228.53;;;0.13;100.00
59274;BME280;45044;41.572;24.730;2023-04-10T04:22:29;91232.66;;;0.14;100.00
59274;BME280;45044;41.572;24.730;2023-04-10T04:24:55;91220.09;;;-0.14;100.00
59274;BME280;45044;41.572;24.730;2023-04-10T04:27:22;91229.03;;;0.06;100.00
59274;BME280;45044;41.572;24.730;2023-04-10T04:29:49;91229.03;;;0.06;100.00
59274;BME280;45044;41.572;24.730;2023-04-10T04:32:15;91229.59;;;0.51;100.00
59274;BME280;45044;41.572;24.730;2023-04-10T04:34:42;91216.66;;;0.51;100.00
59274;BME280;45044;41.572;24.730;2023-04-10T04:37:09;91225.59;;;0.63;100.00
59274;BME280;45044;41.572;24.730;2023-04-10T04:39:36;91228.53;;;0.52;100.00
59274;BME280;45044;41.572;24.730;2023-04-10T04:42:03;91216.34;;;0.83;100.00
59274;BME280;45044;41.572;24.730;2023-04-10T04:44:30;91224.91;;;1.05;100.00
59274;BME280;45044;41.572;24.730;2023-04-10T04:46:57;91229.00;;;1.06;100.00
59274;BME280;45044;41.572;24.730;2023-04-10T04:49:23;91228.44;;;1.22;100.00
59274;BME280;45044;41.572;24.730;2023-04-10T04:51:51;91219.13;;;1.21;100.00
59274;BME280;45044;41.572;24.730;2023-04-10T04:54:18;91224.38;;;1.33;100.00
59274;BME280;45044;41.572;24.730;2023-04-10T04:56:45;91220.25;;;1.53;100.00
59274;BME280;45044;41.572;24.730;2023-04-10T04:59:12;91231.09;;;1.68;100.00
59274;BME280;45044;41.572;24.730;2023-04-10T05:01:39;91228.28;;;1.61;100.00
59274;BME280;45044;41.572;24.730;2023-04-10T05:04:06;91223.59;;;1.88;100.00
59274;BME280;45044;41.572;24.730;2023-04-10T05:06:33;91222.25;;;1.69;100.00
59274;BME280;45044;41.572;24.730;2023-04-10T05:09:00;91229.91;;;2.12;100.00
59274;BME280;45044;41.572;24.730;2023-04-10T05:11:27;91227.88;;;2.30;100.00
59274;BME280;45044;41.572;24.730;2023-04-10T05:13:53;91228.66;;;2.31;100.00
59274;BME280;45044;41.572;24.730;2023-04-10T05:16:20;91233.84;;;2.31;100.00
59274;BME280;45044;41.572;24.730;2023-04-10T05:18:47;91236.56;;;2.59;100.00
59274;BME280;45044;41.572;24.730;2023-04-10T05:21:14;91240.56;;;2.94;100.00
59274;BME280;45044;41.572;24.730;2023-04-10T05:23:41;91240.38;;;4.14;100.00
59274;BME280;45044;41.572;24.730;2023-04-10T05:26:08;91228.41;;;5.90;100.00
59274;BME280;45044;41.572;24.730;2023-04-10T05:28:34;91230.91;;;7.58;100.00
59274;BME280;45044;41.572;24.730;2023-04-10T05:31:01;91229.47;;;8.40;87.87
59274;BME280;45044;41.572;24.730;2023-04-10T05:33:28;91233.56;;;10.54;69.33
59274;BME280;45044;41.572;24.730;2023-04-10T05:35:55;91230.97;;;12.24;57.93
59274;BME280;45044;41.572;24.730;2023-04-10T05:38:22;91230.59;;;13.28;53.87
59274;BME280;45044;41.572;24.730;2023-04-10T05:40:49;91237.84;;;11.89;52.97
59274;BME280;45044;41.572;24.730;2023-04-10T05:43:17;91234.31;;;11.06;57.26
59274;BME280;45044;41.572;24.730;2023-04-10T05:45:44;91241.59;;;11.95;55.15
59274;BME280;45044;41.572;24.730;2023-04-10T05:48:10;91231.84;;;9.80;57.24
59274;BME280;45044;41.572;24.730;2023-04-10T05:50:37;91247.00;;;8.70;61.87
59274;BME280;45044;41.572;24.730;2023-04-10T05:53:04;91238.22;;;7.45;78.47
59274;BME280;45044;41.572;24.730;2023-04-10T05:55:31;91240.38;;;7.39;81.59
59274;BME280;45044;41.572;24.730;2023-04-10T05:57:58;91236.41;;;7.22;81.10
59274;BME280;45044;41.572;24.730;2023-04-10T06:00:24;91246.75;;;6.60;96.69
59274;BME280;45044;41.572;24.730;2023-04-10T06:02:51;91240.25;;;6.27;100.00
59274;BME280;45044;41.572;24.730;2023-04-10T06:05:18;91241.16;;;5.95;100.00
59274;BME280;45044;41.572;24.730;2023-04-10T06:07:45;91244.06;;;5.90;100.00
59274;BME280;45044;41.572;24.730;2023-04-10T06:10:12;91240.63;;;5.66;98.94
59274;BME280;45044;41.572;24.730;2023-04-10T06:12:39;91226.97;;;5.53;100.00
59274;BME280;45044;41.572;24.730;2023-04-10T06:15:06;91235.53;;;5.73;100.00
59274;BME280;45044;41.572;24.730;2023-04-10T06:17:33;91235.47;;;5.69;100.00
59274;BME280;45044;41.572;24.730;2023-04-10T06:20:02;91230.25;;;5.69;100.00
59274;BME280;45044;41.572;24.730;2023-04-10T06:22:30;91229.34;;;6.21;100.00
59274;BME280;45044;41.572;24.730;2023-04-10T06:24:58;91230.28;;;6.32;100.00
59274;BME280;45044;41.572;24.730;2023-04-10T06:27:25;91232.38;;;6.46;100.00
59274;BME280;45044;41.572;24.730;2023-04-10T06:29:52;91226.97;;;6.59;100.00
59274;BME280;45044;41.572;24.730;2023-04-10T06:32:19;91220.56;;;6.56;99.82
59274;BME280;45044;41.572;24.730;2023-04-10T06:34:49;91218.00;;;6.60;100.00
59274;BME280;45044;41.572;24.730;2023-04-10T06:37:26;91222.47;;;6.83;99.59
59274;BME280;45044;41.572;24.730;2023-04-10T06:40:04;91236.69;;;6.86;98.49
59274;BME280;45044;41.572;24.730;2023-04-10T06:42:32;91225.19;;;6.40;98.19
59274;BME280;45044;41.572;24.730;2023-04-10T06:44:59;91224.28;;;6.55;100.00
59274;BME280;45044;41.572;24.730;2023-04-10T06:47:26;91233.44;;;6.45;100.00
59274;BME280;45044;41.572;24.730;2023-04-10T06:49:53;91216.53;;;6.35;100.00
59274;BME280;45044;41.572;24.730;2023-04-10T06:52:20;91235.28;;;6.92;94.57
59274;BME280;45044;41.572;24.730;2023-04-10T06:54:47;91228.34;;;7.30;98.41
59274;BME280;45044;41.572;24.730;2023-04-10T06:57:14;91222.66;;;7.25;88.09
59274;BME280;45044;41.572;24.730;2023-04-10T06:59:41;91228.59;;;6.44;82.94
59274;BME280;45044;41.572;24.730;2023-04-10T07:02:08;91222.56;;;6.63;93.18
59274;BME280;45044;41.572;24.730;2023-04-10T07:04:35;91225.53;;;6.89;98.64
59274;BME280;45044;41.572;24.730;2023-04-10T07:07:02;91227.31;;;6.57;97.98
59274;BME280;45044;41.572;24.730;2023-04-10T07:09:29;91216.22;;;6.91;100.00
59274;BME280;45044;41.572;24.730;2023-04-10T07:11:56;91227.59;;;7.03;100.00
59274;BME280;45044;41.572;24.730;2023-04-10T07:14:23;91218.06;;;7.45;98.06
59274;BME280;45044;41.572;24.730;2023-04-10T07:16:49;91227.94;;;7.59;91.39
59274;BME280;45044;41.572;24.730;2023-04-10T07:19:18;91225.13;;;7.75;80.99
59274;BME280;45044;41.572;24.730;2023-04-10T07:21:45;91228.13;;;7.77;82.42
59274;BME280;45044;41.572;24.730;2023-04-10T07:24:16;91232.94;;;7.72;89.11
59274;BME280;45044;41.572;24.730;2023-04-10T07:26:44;91216.06;;;7.69;83.30
59274;BME280;45044;41.572;24.730;2023-04-10T07:29:11;91233.53;;;7.92;82.35
59274;BME280;45044;41.572;24.730;2023-04-10T07:31:38;91230.53;;;7.94;87.89
59274;BME280;45044;41.572;24.730;2023-04-10T07:34:09;91221.03;;;8.16;87.18
59274;BME280;45044;41.572;24.730;2023-04-10T07:36:36;91234.47;;;8.14;79.28
59274;BME280;45044;41.572;24.730;2023-04-10T07:39:03;91234.38;;;8.03;77.96
59274;BME280;45044;41.572;24.730;2023-04-10T07:41:30;91226.13;;;7.98;87.35
59274;BME280;45044;41.572;24.730;2023-04-10T07:43:56;91227.13;;;8.27;75.69
59274;BME280;45044;41.572;24.730;2023-04-10T07:46:24;91232.84;;;7.99;72.26
59274;BME280;45044;41.572;24.730;2023-04-10T07:48:52;91218.63;;;8.00;74.31
59274;BME280;45044;41.572;24.730;2023-04-10T07:51:21;91227.72;;;8.10;91.88
59274;BME280;45044;41.572;24.730;2023-04-10T07:53:48;91218.38;;;7.74;82.84
59274;BME280;45044;41.572;24.730;2023-04-10T07:56:16;91223.25;;;8.10;89.65
59274;BME280;45044;41.572;24.730;2023-04-10T07:58:44;91228.41;;;8.03;83.50
59274;BME280;45044;41.572;24.730;2023-04-10T08:01:11;91223.59;;;7.74;76.63
59274;BME280;45044;41.572;24.730;2023-04-10T08:03:42;91226.09;;;7.33;78.22
59274;BME280;45044;41.572;24.730;2023-04-10T08:06:10;91231.84;;;7.15;84.50
59274;BME280;45044;41.572;24.730;2023-04-10T08:08:38;91224.53;;;6.97;89.36
59274;BME280;45044;41.572;24.730;2023-04-10T08:11:07;91222.31;;;6.72;86.64
59274;BME280;45044;41.572;24.730;2023-04-10T08:13:47;91226.56;;;6.84;95.96
59274;BME280;45044;41.572;24.730;2023-04-10T08:16:14;91222.72;;;6.74;100.00
59274;BME280;45044;41.572;24.730;2023-04-10T08:18:41;91230.66;;;6.81;94.25
59274;BME280;45044;41.572;24.730;2023-04-10T08:21:08;91221.44;;;6.64;90.80
59274;BME280;45044;41.572;24.730;2023-04-10T08:23:38;91227.19;;;6.74;99.43
59274;BME280;45044;41.572;24.730;2023-04-10T08:26:06;91223.00;;;6.45;86.38
59274;BME280;45044;41.572;24.730;2023-04-10T08:28:33;91211.81;;;6.45;89.89
59274;BME280;45044;41.572;24.730;2023-04-10T08:31:02;91222.94;;;6.42;88.15
59274;BME280;45044;41.572;24.730;2023-04-10T08:33:29;91217.84;;;6.49;100.00
59274;BME280;45044;41.572;24.730;2023-04-10T08:35:56;91219.19;;;6.63;98.28
59274;BME280;45044;41.572;24.730;2023-04-10T08:38:24;91216.66;;;6.70;87.41
59274;BME280;45044;41.572;24.730;2023-04-10T08:40:53;91213.47;;;6.80;87.21
59274;BME280;45044;41.572;24.730;2023-04-10T08:43:20;91218.78;;;6.88;94.21
59274;BME280;45044;41.572;24.730;2023-04-10T08:45:47;91210.75;;;7.00;99.34
59274;BME280;45044;41.572;24.730;2023-04-10T08:48:15;91214.47;;;6.99;82.83
59274;BME280;45044;41.572;24.730;2023-04-10T08:50:44;91208.34;;;6.88;88.05
59274;BME280;45044;41.572;24.730;2023-04-10T08:53:13;91213.66;;;6.95;91.10
59274;BME280;45044;41.572;24.730;2023-04-10T08:55:43;91208.94;;;7.04;97.65
59274;BME280;45044;41.572;24.730;2023-04-10T08:58:11;91211.16;;;7.33;88.58
59274;BME280;45044;41.572;24.730;2023-04-10T09:00:39;91209.88;;;7.50;95.59
59274;BME280;45044;41.572;24.730;2023-04-10T09:03:09;91202.41;;;7.52;90.02
59274;BME280;45044;41.572;24.730;2023-04-10T09:05:38;91214.00;;;7.86;72.34
59274;BME280;45044;41.572;24.730;2023-04-10T09:08:08;91203.22;;;7.57;71.59
59274;BME280;45044;41.572;24.730;2023-04-10T09:10:36;91195.59;;;7.44;74.15
59274;BME280;45044;41.572;24.730;2023-04-10T09:13:03;91182.00;;;7.31;78.45
59274;BME280;45044;41.572;24.730;2023-04-10T09:15:54;91192.63;;;7.46;85.73
59274;BME280;45044;41.572;24.730;2023-04-10T09:18:20;91187.59;;;7.64;78.57
59274;BME280;45044;41.572;24.730;2023-04-10T09:20:46;91190.63;;;7.66;82.94
59274;BME280;45044;41.572;24.730;2023-04-10T09:23:20;91186.66;;;7.45;79.17
59274;BME280;45044;41.572;24.730;2023-04-10T09:25:50;91164.47;;;7.31;76.75
59274;BME280;45044;41.572;24.730;2023-04-10T09:28:16;91188.00;;;7.31;98.44
59274;BME280;45044;41.572;24.730;2023-04-10T09:30:44;91194.31;;;7.61;87.50
59274;BME280;45044;41.572;24.730;2023-04-10T09:33:25;91187.94;;;7.59;92.73
59274;BME280;45044;41.572;24.730;2023-04-10T09:35:57;91183.13;;;7.64;89.40
59274;BME280;45044;41.572;24.730;2023-04-10T09:38:25;91193.28;;;7.70;90.90
59274;BME280;45044;41.572;24.730;2023-04-10T09:41:05;91183.97;;;7.72;89.00
59274;BME280;45044;41.572;24.730;2023-04-10T09:43:32;91188.19;;;7.50;100.00
59274;BME280;45044;41.572;24.730;2023-04-10T09:45:59;91190.28;;;7.37;95.26
59274;BME280;45044;41.572;24.730;2023-04-10T09:48:26;91197.91;;;7.49;99.27
59274;BME280;45044;41.572;24.730;2023-04-10T09:50:53;91190.81;;;7.19;100.00
59274;BME280;45044;41.572;24.730;2023-04-10T09:53:20;91189.94;;;7.07;100.00
59274;BME280;45044;41.572;24.730;2023-04-10T09:55:48;91167.53;;;7.06;100.00
59274;BME280;45044;41.572;24.730;2023-04-10T09:58:16;91193.91;;;7.25;100.00
59274;BME280;45044;41.572;24.730;2023-04-10T10:00:47;91189.13;;;7.03;100.00
59274;BME280;45044;41.572;24.730;2023-04-10T10:03:15;91193.72;;;7.10;100.00
59274;BME280;45044;41.572;24.730;2023-04-10T10:05:46;91202.72;;;7.16;100.00
59274;BME280;45044;41.572;24.730;2023-04-10T10:08:14;91198.97;;;7.14;100.00
59274;BME280;45044;41.572;24.730;2023-04-10T10:10:50;91197.19;;;7.22;100.00
59274;BME280;45044;41.572;24.730;2023-04-10T10:16:12;91190.81;;;7.19;100.00
59274;BME280;45044;41.572;24.730;2023-04-10T10:18:46;91194.06;;;6.81;100.00
59274;BME280;45044;41.572;24.730;2023-04-10T10:21:17;91186.78;;;6.67;100.00
59274;BME280;45044;41.572;24.730;2023-04-10T10:23:47;91190.56;;;6.70;100.00
59274;BME280;45044;41.572;24.730;2023-04-10T10:26:19;91179.69;;;6.68;100.00
59274;BME280;45044;41.572;24.730;2023-04-10T10:28:52;91192.34;;;6.66;100.00
59274;BME280;45044;41.572;24.730;2023-04-10T10:31:20;91193.09;;;6.66;100.00
59274;BME280;45044;41.572;24.730;2023-04-10T10:33:52;91178.78;;;6.56;100.00
59274;BME280;45044;41.572;24.730;2023-04-10T10:36:21;91179.28;;;6.66;100.00
59274;BME280;45044;41.572;24.730;2023-04-10T10:39:26;91191.94;;;6.91;100.00
59274;BME280;45044;41.572;24.730;2023-04-10T10:45:06;91187.19;;;6.69;100.00
59274;BME280;45044;41.572;24.730;2023-04-10T10:47:55;91185.56;;;6.61;100.00
59274;BME280;45044;41.572;24.730;2023-04-10T10:50:22;91187.72;;;6.55;100.00
59274;BME280;45044;41.572;24.730;2023-04-10T10:52:51;91186.97;;;6.55;100.00
59274;BME280;45044;41.572;24.730;2023-04-10T10:58:03;91191.44;;;6.54;100.00
59274;BME280;45044;41.572;24.730;2023-04-10T11:05:50;91184.38;;;6.31;100.00
59274;BME280;45044;41.572;24.730;2023-04-10T11:11:24;91155.56;;;6.51;100.00
59274;BME280;45044;41.572;24.730;2023-04-10T11:16:39;91171.28;;;6.55;100.00
59274;BME280;45044;41.572;24.730;2023-04-10T11:19:10;91173.97;;;6.58;100.00
59274;BME280;45044;41.572;24.730;2023-04-10T11:24:28;91170.63;;;6.62;100.00
59274;BME280;45044;41.572;24.730;2023-04-10T11:26:55;91160.28;;;6.69;100.00
59274;BME280;45044;41.572;24.730;2023-04-10T11:31:57;91158.19;;;6.78;100.00
59274;BME280;45044;41.572;24.730;2023-04-10T11:34:24;91163.06;;;6.53;100.00
59274;BME280;45044;41.572;24.730;2023-04-10T11:36:53;91168.13;;;6.42;100.00
59274;BME280;45044;41.572;24.730;2023-04-10T11:39:20;91153.22;;;6.19;100.00
59274;BME280;45044;41.572;24.730;2023-04-10T11:41:51;91165.41;;;6.11;100.00
59274;BME280;45044;41.572;24.730;2023-04-10T11:44:30;91162.31;;;6.05;100.00
59274;BME280;45044;41.572;24.730;2023-04-10T11:46:57;91165.97;;;6.01;100.00
59274;BME280;45044;41.572;24.730;2023-04-10T11:49:26;91164.91;;;6.25;100.00
59274;BME280;45044;41.572;24.730;2023-04-10T11:51:53;91151.78;;;6.21;100.00
59274;BME280;45044;41.572;24.730;2023-04-10T11:54:22;91161.16;;;6.26;100.00
59274;BME280;45044;41.572;24.730;2023-04-10T11:57:02;91163.66;;;6.42;100.00
59274;BME280;45044;41.572;24.730;2023-04-10T11:59:31;91159.19;;;6.43;100.00
59274;BME280;45044;41.572;24.730;2023-04-10T12:02:11;91156.53;;;6.39;100.00
59274;BME280;45044;41.572;24.730;2023-04-10T12:04:42;91161.56;;;6.52;100.00
59274;BME280;45044;41.572;24.730;2023-04-10T12:07:12;91155.56;;;6.51;100.00
59274;BME280;45044;41.572;24.730;2023-04-10T12:09:38;91153.94;;;6.66;100.00
59274;BME280;45044;41.572;24.730;2023-04-10T12:12:06;91153.34;;;6.80;100.00
59274;BME280;45044;41.572;24.730;2023-04-10T12:14:34;91147.28;;;7.03;100.00
59274;BME280;45044;41.572;24.730;2023-04-10T12:17:06;91162.06;;;7.19;100.00
59274;BME280;45044;41.572;24.730;2023-04-10T12:19:33;91146.16;;;7.31;100.00
59274;BME280;45044;41.572;24.730;2023-04-10T12:22:01;91142.97;;;7.49;100.00
59274;BME280;45044;41.572;24.730;2023-04-10T12:24:51;91143.81;;;7.57;100.00
59274;BME280;45044;41.572;24.730;2023-04-10T12:27:25;91145.47;;;7.38;100.00
59274;BME280;45044;41.572;24.730;2023-04-10T12:29:56;91142.38;;;7.29;100.00
59274;BME280;45044;41.572;24.730;2023-04-10T12:32:25;91135.13;;;7.15;100.00
59274;BME280;45044;41.572;24.730;2023-04-10T12:34:55;91143.25;;;7.40;100.00
59274;BME280;45044;41.572;24.730;2023-04-10T12:37:48;91142.47;;;7.05;100.00
59274;BME280;45044;41.572;24.730;2023-04-10T12:40:16;91126.22;;;6.62;100.00
59274;BME280;45044;41.572;24.730;2023-04-10T12:42:44;91126.56;;;7.18;100.00
59274;BME280;45044;41.572;24.730;2023-04-10T12:45:11;91125.88;;;7.21;100.00
59274;BME280;45044;41.572;24.730;2023-04-10T12:47:45;91122.09;;;6.88;100.00
59274;BME280;45044;41.572;24.730;2023-04-10T12:50:15;91124.66;;;7.15;100.00
59274;BME280;45044;41.572;24.730;2023-04-10T12:52:44;91117.97;;;7.17;100.00
59274;BME280;45044;41.572;24.730;2023-04-10T12:55:18;91121.28;;;7.14;100.00
59274;BME280;45044;41.572;24.730;2023-04-10T12:57:47;91114.94;;;7.12;100.00
59274;BME280;45044;41.572;24.730;2023-04-10T13:00:17;91113.75;;;7.09;100.00
59274;BME280;45044;41.572;24.730;2023-04-10T13:02:47;91108.63;;;7.16;100.00
59274;BME280;45044;41.572;24.730;2023-04-10T13:05:14;91108.78;;;7.69;100.00
59274;BME280;45044;41.572;24.730;2023-04-10T13:07:41;91100.53;;;8.09;100.00
59274;BME280;45044;41.572;24.730;2023-04-10T13:10:08;91100.84;;;8.53;100.00
59274;BME280;45044;41.572;24.730;2023-04-10T13:12:36;91082.16;;;8.58;100.00
59274;BME280;45044;41.572;24.730;2023-04-10T13:15:06;91087.66;;;8.42;100.00
59274;BME280;45044;41.572;24.730;2023-04-10T13:17:33;91080.41;;;8.20;100.00
59274;BME280;45044;41.572;24.730;2023-04-10T13:20:00;91079.88;;;8.53;100.00
59274;BME280;45044;41.572;24.730;2023-04-10T13:22:27;91091.41;;;9.08;100.00
59274;BME280;45044;41.572;24.730;2023-04-10T13:24:54;91092.06;;;8.26;100.00
59274;BME280;45044;41.572;24.730;2023-04-10T13:27:21;91096.66;;;8.44;100.00
59274;BME280;45044;41.572;24.730;2023-04-10T13:29:47;91086.06;;;8.86;100.00
59274;BME280;45044;41.572;24.730;2023-04-10T13:32:14;91091.56;;;8.10;100.00
59274;BME280;45044;41.572;24.730;2023-04-10T13:34:43;91094.78;;;8.41;100.00
59274;BME280;45044;41.572;24.730;2023-04-10T13:37:10;91078.06;;;8.04;100.00
59274;BME280;45044;41.572;24.730;2023-04-10T13:39:40;91091.25;;;8.19;100.00
59274;BME280;45044;41.572;24.730;2023-04-10T13:42:13;91092.06;;;7.77;100.00